Time;durP1;ratioP1;P1;durP2;ratioP2;P2;SDS_P1;SDS_P2;PMS_P1;PMS_P2;Temp;Humidity;BMP_temperature;BMP_pressure;BME280_temperature;BME280_humidity;BME280_pressure;Samples;Min_cycle;Max_cycle;Signal;HPM_P1;HPM_P2
2021/09/28 00:00:44;;;;;;;1.23;0.60;;;;;;;12.17;100.00;94484.31;5133809;28;20201;-78
2021/09/28 00:03:10;;;;;;;1.48;0.65;;;;;;;12.02;100.00;94491.44;5133757;28;20674;-76
2021/09/28 00:05:38;;;;;;;2.80;0.60;;;;;;;11.92;100.00;94496.22;5134138;27;20294;-76
2021/09/28 00:08:05;;;;;;;2.90;1.05;;;;;;;11.81;100.00;94506.19;5138058;27;20203;-76
2021/09/28 00:10:33;;;;;;;0.85;0.60;;;;;;;11.73;100.00;94508.94;5138010;27;20196;-76
2021/09/28 00:13:04;;;;;;;1.75;0.60;;;;;;;11.63;100.00;94514.47;5137807;27;20200;-77
2021/09/28 00:15:30;;;;;;;4.95;1.58;;;;;;;11.57;100.00;94517.03;5137664;27;20235;-77
2021/09/28 00:17:57;;;;;;;3.65;0.60;;;;;;;11.45;100.00;94520.16;5137754;27;20585;-78
2021/09/28 00:20:24;;;;;;;1.83;0.70;;;;;;;11.40;100.00;94519.09;5137880;27;20199;-76
2021/09/28 00:22:53;;;;;;;2.42;0.80;;;;;;;11.32;100.00;94527.06;5137858;27;20390;-76
2021/09/28 00:25:21;;;;;;;2.03;0.60;;;;;;;11.19;100.00;94533.78;5124579;27;20214;-77
2021/09/28 00:27:47;;;;;;;0.50;0.50;;;;;;;11.10;100.00;94527.03;5096627;28;20201;-76
2021/09/28 00:30:14;;;;;;;0.87;0.70;;;;;;;11.06;100.00;94518.75;5096845;28;20205;-76
2021/09/28 00:32:41;;;;;;;2.00;0.70;;;;;;;11.04;100.00;94509.47;5096747;28;20202;-77
2021/09/28 00:35:08;;;;;;;1.70;0.70;;;;;;;11.06;100.00;94513.53;5112861;28;20225;-76
2021/09/28 00:37:35;;;;;;;0.60;0.50;;;;;;;11.02;100.00;94501.81;5116725;28;20656;-77
2021/09/28 00:40:03;;;;;;;3.27;0.67;;;;;;;11.04;100.00;94512.94;5116837;28;20666;-77
2021/09/28 00:42:30;;;;;;;1.10;0.60;;;;;;;11.08;100.00;94511.53;5116809;28;20194;-77
2021/09/28 00:44:56;;;;;;;1.87;0.90;;;;;;;11.15;100.00;94509.00;5117021;28;20197;-78
2021/09/28 00:47:23;;;;;;;1.73;0.90;;;;;;;11.17;100.00;94514.84;5116683;28;20193;-77
2021/09/28 00:49:49;;;;;;;1.37;1.13;;;;;;;11.16;100.00;94517.63;5116882;28;20210;-77
2021/09/28 00:52:19;;;;;;;3.17;1.20;;;;;;;11.14;100.00;94527.47;5116607;28;20216;-77
2021/09/28 00:54:47;;;;;;;2.77;1.20;;;;;;;11.11;100.00;94526.84;5116403;28;20259;-77
2021/09/28 00:57:16;;;;;;;1.17;1.07;;;;;;;11.08;100.00;94526.41;5116445;28;20567;-77
2021/09/28 00:59:44;;;;;;;0.80;0.60;;;;;;;10.81;100.00;94520.06;5116388;28;20197;-77
2021/09/28 01:02:12;;;;;;;1.13;0.70;;;;;;;10.73;100.00;94524.41;5121065;27;20211;-76
2021/09/28 01:04:39;;;;;;;0.70;0.70;;;;;;;10.78;100.00;94525.69;5136800;27;20197;-76
2021/09/28 01:07:07;;;;;;;0.60;0.40;;;;;;;10.76;100.00;94528.47;5136987;27;20200;-76
2021/09/28 01:09:35;;;;;;;1.90;0.87;;;;;;;10.74;100.00;94525.22;5136719;27;20199;-76
2021/09/28 01:12:05;;;;;;;0.87;0.80;;;;;;;10.59;100.00;94525.25;5137081;27;20197;-76
2021/09/28 01:14:33;;;;;;;2.53;0.80;;;;;;;10.44;100.00;94521.84;5136950;27;20228;-75
2021/09/28 01:16:59;;;;;;;2.40;1.17;;;;;;;10.39;100.00;94530.19;5136211;27;20283;-76
2021/09/28 01:19:26;;;;;;;2.40;0.93;;;;;;;10.31;100.00;94528.47;5135959;27;20204;-76
2021/09/28 01:21:54;;;;;;;1.13;0.70;;;;;;;10.34;100.00;94535.16;5136685;27;20197;-75
2021/09/28 01:24:20;;;;;;;2.47;0.87;;;;;;;10.27;100.00;94531.63;5136573;27;20204;-75
2021/09/28 01:26:47;;;;;;;1.10;0.80;;;;;;;10.28;100.00;94534.03;5136338;27;20699;-76
2021/09/28 01:29:13;;;;;;;1.13;0.77;;;;;;;10.26;100.00;94528.19;5136706;27;20200;-75
2021/09/28 01:31:41;;;;;;;6.33;1.20;;;;;;;10.26;100.00;94538.66;5136519;27;20284;-75
2021/09/28 01:34:08;;;;;;;1.77;0.80;;;;;;;10.26;100.00;94528.19;5136565;27;20228;-76
2021/09/28 01:36:35;;;;;;;1.30;0.90;;;;;;;10.28;100.00;94539.28;5136303;27;20192;-76
2021/09/28 01:39:04;;;;;;;4.90;0.90;;;;;;;10.27;100.00;94540.25;5136484;27;20291;-76
2021/09/28 01:41:30;;;;;;;3.73;1.00;;;;;;;10.27;100.00;94542.84;5136580;27;20200;-75
2021/09/28 01:44:08;;;;;;;2.83;1.20;;;;;;;10.28;100.00;94541.88;5136116;27;20201;-76
2021/09/28 01:46:37;;;;;;;2.93;1.07;;;;;;;10.25;100.00;94541.44;5136250;27;20192;-76
2021/09/28 01:49:04;;;;;;;1.63;1.03;;;;;;;10.24;100.00;94534.56;5135950;27;20208;-76
2021/09/28 01:51:30;;;;;;;2.20;1.00;;;;;;;10.19;100.00;94537.72;5136022;27;20685;-76
2021/09/28 01:53:57;;;;;;;3.43;1.00;;;;;;;10.12;100.00;94532.41;5135962;27;20201;-76
2021/09/28 01:56:26;;;;;;;1.87;1.00;;;;;;;10.11;100.00;94530.00;5136102;27;20292;-76
2021/09/28 01:58:53;;;;;;;3.37;1.10;;;;;;;10.05;100.00;94528.09;5135829;27;20486;-77
2021/09/28 02:01:20;;;;;;;1.87;0.90;;;;;;;10.04;100.00;94529.06;5135765;27;20200;-77
2021/09/28 02:03:46;;;;;;;3.33;0.83;;;;;;;10.00;100.00;94532.03;5135932;27;20528;-77
2021/09/28 02:06:14;;;;;;;3.03;0.80;;;;;;;9.97;100.00;94532.38;5135984;27;20223;-77
2021/09/28 02:08:43;;;;;;;1.90;1.20;;;;;;;10.00;100.00;94533.84;5135910;27;20208;-76
2021/09/28 02:11:10;;;;;;;4.13;1.30;;;;;;;9.99;100.00;94532.22;5135807;27;20303;-76
2021/09/28 02:13:38;;;;;;;4.17;1.17;;;;;;;9.99;100.00;94537.44;5135390;27;20666;-76
2021/09/28 02:16:05;;;;;;;3.83;1.07;;;;;;;9.97;100.00;94534.19;5135253;27;20716;-77
2021/09/28 02:18:31;;;;;;;5.17;1.00;;;;;;;9.97;100.00;94528.97;5135433;27;20193;-76
2021/09/28 02:20:58;;;;;;;2.43;1.20;;;;;;;9.98;100.00;94526.19;5135278;27;20200;-76
2021/09/28 02:23:25;;;;;;;6.60;1.10;;;;;;;10.00;100.00;94524.22;5135093;27;20197;-77
2021/09/28 02:25:52;;;;;;;2.10;1.30;;;;;;;10.02;100.00;94518.81;5135122;27;20232;-77
2021/09/28 02:28:21;;;;;;;6.53;1.37;;;;;;;10.02;100.00;94526.63;5135146;27;20197;-76
2021/09/28 02:30:48;;;;;;;4.13;1.20;;;;;;;9.97;100.00;94529.78;5134845;27;20193;-76
2021/09/28 02:33:15;;;;;;;5.40;1.63;;;;;;;9.96;100.00;94533.38;5135464;27;20554;-77
2021/09/28 02:35:43;;;;;;;3.17;1.60;;;;;;;10.00;100.00;94529.44;5134988;27;20224;-75
2021/09/28 02:38:18;;;;;;;11.43;1.60;;;;;;;9.97;100.00;94532.38;5135233;27;20203;-76
2021/09/28 02:40:45;;;;;;;3.63;1.90;;;;;;;10.02;100.00;94536.28;5134902;27;20192;-76
2021/09/28 02:43:13;;;;;;;4.30;1.70;;;;;;;9.99;100.00;94517.38;5134940;27;20201;-76
2021/09/28 02:45:40;;;;;;;2.90;1.53;;;;;;;10.08;100.00;94514.69;5135166;27;20200;-75
2021/09/28 02:48:08;;;;;;;2.80;1.60;;;;;;;10.03;100.00;94512.63;5134640;27;20588;-76
2021/09/28 02:50:35;;;;;;;5.40;1.40;;;;;;;9.98;100.00;94518.38;5134853;27;20197;-77
2021/09/28 02:53:01;;;;;;;2.10;1.10;;;;;;;9.96;100.00;94509.91;5134928;27;20219;-76
2021/09/28 02:55:28;;;;;;;4.80;1.30;;;;;;;9.93;100.00;94523.31;5134661;27;20231;-76
2021/09/28 02:57:56;;;;;;;2.47;1.10;;;;;;;9.88;100.00;94525.63;5134468;27;20201;-77
2021/09/28 03:00:23;;;;;;;4.30;1.20;;;;;;;9.91;100.00;94522.69;5131309;27;20204;-76
2021/09/28 03:02:49;;;;;;;1.77;0.93;;;;;;;10.02;100.00;94523.22;5134629;27;20207;-76
2021/09/28 03:05:17;;;;;;;4.27;1.40;;;;;;;9.99;100.00;94530.44;5134588;27;20200;-76
2021/09/28 03:07:45;;;;;;;4.20;1.30;;;;;;;9.97;100.00;94524.56;5134678;27;20204;-77
2021/09/28 03:10:12;;;;;;;9.37;1.60;;;;;;;9.99;100.00;94527.00;5134516;27;20360;-77
2021/09/28 03:12:38;;;;;;;4.80;1.60;;;;;;;9.99;100.00;94529.59;5134287;27;20201;-77
2021/09/28 03:15:06;;;;;;;3.83;2.00;;;;;;;9.94;100.00;94524.94;5134500;27;20236;-78
2021/09/28 03:17:33;;;;;;;3.40;1.50;;;;;;;9.91;100.00;94533.13;5134405;27;20200;-76
2021/09/28 03:20:00;;;;;;;3.53;1.40;;;;;;;9.90;100.00;94534.09;5134507;27;20204;-77
2021/09/28 03:22:27;;;;;;;3.77;1.43;;;;;;;9.94;100.00;94526.72;5134315;27;20192;-77
2021/09/28 03:24:57;;;;;;;5.30;1.60;;;;;;;10.02;100.00;94520.63;5134172;27;20674;-77
2021/09/28 03:27:23;;;;;;;4.13;1.43;;;;;;;9.97;100.00;94514.13;5134019;27;20235;-77
2021/09/28 03:29:50;;;;;;;3.30;1.53;;;;;;;9.90;100.00;94520.25;5134394;27;20566;-78
2021/09/28 03:32:16;;;;;;;4.43;1.87;;;;;;;9.87;100.00;94525.81;5134159;27;20215;-77
2021/09/28 03:34:43;;;;;;;7.70;2.00;;;;;;;9.87;100.00;94533.63;5134089;27;20221;-77
2021/09/28 03:37:09;;;;;;;6.57;1.97;;;;;;;9.94;100.00;94522.34;5134102;27;20208;-77
2021/09/28 03:39:37;;;;;;;1.50;1.40;;;;;;;9.94;100.00;94524.09;5133880;27;20204;-77
2021/09/28 03:42:04;;;;;;;9.70;2.30;;;;;;;9.89;100.00;94532.50;5133558;27;20196;-78
2021/09/28 03:44:31;;;;;;;7.03;1.60;;;;;;;9.89;100.00;94522.06;5133635;27;20208;-78
2021/09/28 03:47:00;;;;;;;2.47;1.40;;;;;;;9.88;100.00;94532.66;5133886;27;20208;-76
2021/09/28 03:49:29;;;;;;;6.87;1.73;;;;;;;9.91;100.00;94525.28;5133861;27;20193;-77
2021/09/28 03:51:56;;;;;;;5.97;1.90;;;;;;;9.91;100.00;94530.50;5133780;27;20204;-77
2021/09/28 03:54:28;;;;;;;1.93;1.47;;;;;;;9.81;100.00;94529.94;5134022;27;20204;-77
2021/09/28 03:57:04;;;;;;;4.50;1.70;;;;;;;9.75;100.00;94530.66;5133801;28;20230;-76
2021/09/28 03:59:31;;;;;;;2.57;1.50;;;;;;;9.70;100.00;94527.75;5134093;27;20208;-77
2021/09/28 04:01:58;;;;;;;4.77;1.63;;;;;;;9.65;100.00;94535.31;5133862;28;20197;-77
2021/09/28 04:04:24;;;;;;;4.13;1.80;;;;;;;9.63;100.00;94538.88;5133775;28;20201;-77
2021/09/28 04:06:51;;;;;;;7.93;1.70;;;;;;;9.56;100.00;94532.75;5133673;28;20201;-76
2021/09/28 04:09:17;;;;;;;3.00;1.70;;;;;;;9.52;100.00;94536.69;5134049;28;20223;-77
2021/09/28 04:11:45;;;;;;;4.17;1.53;;;;;;;9.43;100.00;94532.53;5133662;28;20204;-77
2021/09/28 04:14:16;;;;;;;8.87;1.70;;;;;;;9.38;100.00;94534.84;5133758;28;20192;-77
2021/09/28 04:16:42;;;;;;;3.23;2.00;;;;;;;9.31;100.00;94529.53;5133765;28;20231;-77
2021/09/28 04:19:09;;;;;;;5.70;2.03;;;;;;;9.43;100.00;94541.16;5133634;28;20196;-78
2021/09/28 04:21:38;;;;;;;7.07;1.83;;;;;;;9.33;100.00;94547.59;5133720;28;20201;-77
2021/09/28 04:24:06;;;;;;;7.90;1.77;;;;;;;9.21;100.00;94550.59;5133478;27;20197;-77
2021/09/28 04:26:33;;;;;;;13.83;2.40;;;;;;;9.18;100.00;94550.13;5133309;28;20221;-76
2021/09/28 04:29:01;;;;;;;11.93;2.57;;;;;;;9.14;100.00;94565.28;5133691;28;20207;-77
2021/09/28 04:31:29;;;;;;;10.13;2.23;;;;;;;9.10;100.00;94565.81;5133567;28;20608;-77
2021/09/28 04:33:56;;;;;;;5.20;2.20;;;;;;;8.97;100.00;94558.53;5133430;28;20208;-76
2021/09/28 04:36:23;;;;;;;6.17;2.00;;;;;;;8.80;100.00;94569.03;5133299;28;20232;-77
2021/09/28 04:39:05;;;;;;;4.77;2.13;;;;;;;8.67;100.00;94564.34;5133559;28;20567;-76
2021/09/28 04:41:32;;;;;;;17.23;2.70;;;;;;;8.51;100.00;94564.44;5133493;28;20231;-77
2021/09/28 04:43:59;;;;;;;6.33;2.03;;;;;;;8.44;100.00;94574.72;5133467;28;20196;-77
2021/09/28 04:46:25;;;;;;;5.40;2.27;;;;;;;8.29;100.00;94565.94;5133348;28;20197;-76
2021/09/28 04:48:53;;;;;;;5.80;2.10;;;;;;;8.19;100.00;94570.50;5133656;28;20208;-76
2021/09/28 04:51:20;;;;;;;6.70;2.57;;;;;;;8.11;100.00;94573.91;5133241;27;20201;-76
2021/09/28 04:53:47;;;;;;;12.70;2.70;;;;;;;8.10;100.00;94570.53;5137173;27;20200;-77
2021/09/28 04:56:13;;;;;;;5.20;2.87;;;;;;;8.05;100.00;94565.00;5137138;27;20224;-76
2021/09/28 04:58:40;;;;;;;9.40;2.93;;;;;;;7.94;100.00;94558.38;5133561;27;20201;-76
2021/09/28 05:01:06;;;;;;;5.07;2.87;;;;;;;8.04;100.00;94562.56;5136834;27;20210;-77
2021/09/28 05:03:33;;;;;;;7.87;3.00;;;;;;;7.93;100.00;94561.94;5137225;27;20224;-77
2021/09/28 05:06:08;;;;;;;8.57;3.17;;;;;;;7.91;100.00;94568.25;5137175;27;20197;-76
2021/09/28 05:08:35;;;;;;;4.17;2.83;;;;;;;7.85;100.00;94569.75;5136784;27;20585;-76
2021/09/28 05:11:11;;;;;;;8.50;3.30;;;;;;;7.87;100.00;94556.56;5136993;27;20755;-77
2021/09/28 05:13:49;;;;;;;8.67;3.87;;;;;;;7.94;100.00;94562.75;5136893;27;20206;-77
2021/09/28 05:16:17;;;;;;;14.57;3.70;;;;;;;7.96;100.00;94550.41;5136978;27;20224;-77
2021/09/28 05:18:43;;;;;;;9.67;4.10;;;;;;;7.98;100.00;94538.03;5136705;27;20683;-77
2021/09/28 05:21:12;;;;;;;6.00;3.23;;;;;;;7.85;100.00;94543.75;5136733;27;20220;-77
2021/09/28 05:23:38;;;;;;;6.80;3.20;;;;;;;7.77;100.00;94539.34;5136579;27;20205;-77
2021/09/28 05:26:05;;;;;;;8.50;3.57;;;;;;;7.82;100.00;94535.47;5136505;27;20312;-77
2021/09/28 05:28:31;;;;;;;8.03;3.80;;;;;;;7.74;100.00;94531.06;5136540;27;20532;-77
2021/09/28 05:30:58;;;;;;;10.30;4.53;;;;;;;7.87;100.00;94530.59;5136518;27;20283;-77
2021/09/28 05:33:27;;;;;;;10.03;4.37;;;;;;;8.00;100.00;94532.69;5136429;27;20208;-77
2021/09/28 05:35:56;;;;;;;16.07;4.67;;;;;;;7.98;100.00;94543.25;5136285;27;20228;-76
2021/09/28 05:38:25;;;;;;;8.17;3.70;;;;;;;8.02;100.00;94535.91;5136253;27;20200;-77
2021/09/28 05:40:55;;;;;;;5.13;2.90;;;;;;;7.87;100.00;94544.38;5136606;27;20204;-78
2021/09/28 05:43:27;;;;;;;8.50;3.10;;;;;;;7.87;100.00;94540.97;5136383;27;20193;-76
2021/09/28 05:45:53;;;;;;;8.13;3.20;;;;;;;7.80;100.00;94555.63;5136329;27;20240;-77
2021/09/28 05:48:19;;;;;;;4.67;2.73;;;;;;;7.65;100.00;94552.88;5136417;27;20261;-77
2021/09/28 05:50:50;;;;;;;4.83;2.90;;;;;;;7.57;100.00;94549.28;5136040;27;20246;-76
2021/09/28 05:53:18;;;;;;;12.20;3.97;;;;;;;7.70;100.00;94561.78;5136005;27;20762;-77
2021/09/28 05:55:46;;;;;;;11.10;3.77;;;;;;;7.70;100.00;94558.38;5136071;27;20236;-77
2021/09/28 05:58:13;;;;;;;10.40;3.43;;;;;;;7.77;100.00;94557.53;5135702;27;20724;-76
2021/09/28 06:00:40;;;;;;;13.47;3.90;;;;;;;7.75;100.00;94556.09;5135924;27;20200;-77
2021/09/28 06:03:06;;;;;;;8.77;3.43;;;;;;;7.75;100.00;94558.69;5135504;27;20196;-77
2021/09/28 06:05:33;;;;;;;10.47;4.10;;;;;;;7.78;100.00;94563.56;5135314;27;20598;-76
2021/09/28 06:08:05;;;;;;;10.40;4.50;;;;;;;7.78;100.00;94563.56;5135978;27;20200;-77
2021/09/28 06:10:34;;;;;;;8.73;4.27;;;;;;;7.82;100.00;94566.66;5135688;27;20193;-77
2021/09/28 06:13:02;;;;;;;7.37;3.67;;;;;;;7.83;100.00;94563.91;5135688;27;20208;-76
2021/09/28 06:15:30;;;;;;;12.27;4.90;;;;;;;7.85;100.00;94563.75;5135420;27;20224;-77
2021/09/28 06:17:58;;;;;;;6.77;3.77;;;;;;;7.89;100.00;94552.03;5135532;27;20245;-77
2021/09/28 06:20:27;;;;;;;5.53;3.70;;;;;;;7.91;100.00;94556.09;5135656;27;20205;-76
2021/09/28 06:22:54;;;;;;;7.37;3.33;;;;;;;7.96;100.00;94566.00;5135140;27;20193;-76
2021/09/28 06:25:20;;;;;;;7.70;2.87;;;;;;;7.96;100.00;94559.00;5135524;27;20192;-77
2021/09/28 06:27:49;;;;;;;8.10;3.40;;;;;;;8.05;100.00;94565.00;5135464;27;20528;-76
2021/09/28 06:30:20;;;;;;;8.73;3.20;;;;;;;8.12;100.00;94558.16;5135480;27;20201;-76
2021/09/28 06:32:46;;;;;;;7.03;3.50;;;;;;;8.25;100.00;94554.25;5135122;27;20193;-76
2021/09/28 06:35:17;;;;;;;8.17;4.00;;;;;;;8.38;100.00;94553.72;5135360;27;20193;-77
2021/09/28 06:37:43;;;;;;;6.60;3.63;;;;;;;8.39;100.00;94545.72;5135391;27;20200;-77
2021/09/28 06:40:13;;;;;;;11.77;3.60;;;;;;;8.49;100.00;94538.59;5135239;27;20205;-77
2021/09/28 06:42:42;;;;;;;11.73;3.43;;;;;;;8.52;100.00;94543.44;5134903;27;20204;-76
2021/09/28 06:45:10;;;;;;;6.67;3.83;;;;;;;8.66;100.00;94541.09;5134548;27;20200;-78
2021/09/28 06:47:41;;;;;;;7.40;3.37;;;;;;;8.74;100.00;94532.47;5135134;27;20266;-77
2021/09/28 06:50:09;;;;;;;8.13;3.87;;;;;;;8.65;100.00;94534.28;5135229;27;20200;-77
2021/09/28 06:52:36;;;;;;;6.53;4.13;;;;;;;8.79;100.00;94525.78;5134807;27;20197;-77
2021/09/28 06:55:03;;;;;;;11.27;4.20;;;;;;;8.93;100.00;94544.25;5134841;27;20721;-76
2021/09/28 06:57:30;;;;;;;10.47;4.80;;;;;;;8.99;100.00;94540.94;5134522;27;20237;-76
2021/09/28 06:59:56;;;;;;;8.43;4.80;;;;;;;9.15;100.00;94532.25;5134940;27;20223;-77
2021/09/28 07:02:23;;;;;;;6.80;3.43;;;;;;;9.17;100.00;94538.88;5134745;27;20207;-76
2021/09/28 07:04:50;;;;;;;5.70;3.20;;;;;;;9.18;100.00;94542.31;5134782;27;20209;-77
2021/09/28 07:07:17;;;;;;;12.97;4.77;;;;;;;9.42;100.00;94541.31;5130586;27;20211;-77
2021/09/28 07:09:46;;;;;;;9.20;3.50;;;;;;;9.49;100.00;94539.63;5134549;27;20696;-77
2021/09/28 07:12:13;;;;;;;9.00;2.80;;;;;;;9.61;100.00;94534.84;5134622;27;20261;-77
2021/09/28 07:14:39;;;;;;;6.77;2.97;;;;;;;9.68;100.00;94546.19;5134236;27;20201;-77
2021/09/28 07:17:06;;;;;;;8.10;2.90;;;;;;;9.79;100.00;94542.34;5134423;27;20232;-77
2021/09/28 07:19:34;;;;;;;9.87;3.17;;;;;;;9.85;100.00;94535.63;5134647;27;20296;-77
2021/09/28 07:22:02;;;;;;;5.83;2.87;;;;;;;9.88;100.00;94535.28;5134297;27;20284;-77
2021/09/28 07:24:28;;;;;;;10.03;2.73;;;;;;;9.89;100.00;94532.50;5134108;27;20204;-78
2021/09/28 07:26:57;;;;;;;16.43;2.23;;;;;;;9.71;100.00;94529.38;5134217;27;20236;-76
2021/09/28 07:29:23;;;;;;;6.00;2.37;;;;;;;9.77;100.00;94529.47;5133982;27;20196;-77
2021/09/28 07:31:50;;;;;;;12.83;2.43;;;;;;;9.90;100.00;94539.31;5133834;27;20196;-77
2021/09/28 07:34:16;;;;;;;3.57;2.13;;;;;;;10.04;100.00;94529.06;5134214;27;20196;-77
2021/09/28 07:36:43;;;;;;;4.40;1.80;;;;;;;10.08;100.00;94528.53;5133876;27;20229;-76
2021/09/28 07:39:11;;;;;;;10.33;1.87;;;;;;;9.99;100.00;94527.81;5133950;27;20201;-76
2021/09/28 07:41:38;;;;;;;5.03;1.50;;;;;;;10.10;100.00;94518.72;5134031;27;20201;-77
2021/09/28 07:44:04;;;;;;;9.97;1.63;;;;;;;10.20;100.00;94523.69;5133838;27;20207;-76
2021/09/28 07:46:40;;;;;;;7.37;1.50;;;;;;;10.34;100.00;94525.53;5133744;27;20559;-76
2021/09/28 07:49:06;;;;;;;8.97;1.87;;;;;;;10.61;100.00;94531.09;5133994;27;20212;-77
2021/09/28 07:51:33;;;;;;;7.17;1.87;;;;;;;10.77;100.00;94526.66;5133445;27;20207;-76
2021/09/28 07:53:59;;;;;;;6.70;1.80;;;;;;;10.91;100.00;94523.22;5134037;27;20208;-76
2021/09/28 07:56:28;;;;;;;5.72;1.52;;;;;;;10.86;100.00;94525.59;5133808;27;20319;-76
2021/09/28 07:58:59;;;;;;;5.18;1.60;;;;;;;11.09;100.00;94531.47;5133771;27;20234;-76
2021/09/28 08:01:26;;;;;;;6.68;1.30;;;;;;;11.19;100.00;94525.13;5133791;28;20253;-76
2021/09/28 08:03:52;;;;;;;4.68;1.17;;;;;;;11.17;100.00;94527.13;5133828;28;20562;-76
2021/09/28 08:06:26;;;;;;;5.07;1.40;;;;;;;11.19;100.00;94527.72;5133645;28;20589;-77
2021/09/28 08:08:52;;;;;;;8.40;1.40;;;;;;;11.24;100.00;94526.19;5133674;28;20200;-77
2021/09/28 08:11:19;;;;;;;5.85;1.40;;;;;;;11.20;100.00;94526.75;5133653;28;20670;-77
2021/09/28 08:13:47;;;;;;;9.57;1.52;;;;;;;11.38;100.00;94528.94;5133771;28;20324;-77
2021/09/28 08:16:14;;;;;;;9.33;1.47;;;;;;;11.27;100.00;94525.00;5133680;28;20240;-76
2021/09/28 08:18:43;;;;;;;2.60;1.10;;;;;;;11.26;100.00;94529.44;5133484;28;20554;-76
2021/09/28 08:21:09;;;;;;;6.07;1.60;;;;;;;11.27;100.00;94531.06;5133891;28;20224;-76
2021/09/28 08:23:36;;;;;;;2.87;1.20;;;;;;;11.09;100.00;94523.63;5133689;28;20224;-76
2021/09/28 08:31:28;;;;;;;2.47;1.37;;;;;;;11.42;100.00;94527.56;5137676;27;20388;-76
2021/09/28 08:33:56;;;;;;;3.03;1.20;;;;;;;11.48;100.00;94525.00;5137769;27;20200;-76
2021/09/28 08:36:23;;;;;;;7.33;1.90;;;;;;;11.73;100.00;94519.38;5112966;27;20225;-75
2021/09/28 08:38:49;;;;;;;3.28;1.40;;;;;;;11.85;100.00;94519.69;5116938;28;20207;-75
2021/09/28 08:41:16;;;;;;;2.92;1.13;;;;;;;11.94;100.00;94518.59;5113011;28;20194;-75
2021/09/28 08:43:45;;;;;;;4.95;1.58;;;;;;;12.01;100.00;94518.63;5096279;28;20202;-76
2021/09/28 08:46:15;;;;;;;4.93;1.10;;;;;;;12.31;100.00;94521.84;5096340;28;20676;-76
2021/09/28 08:48:43;;;;;;;8.43;1.40;;;;;;;12.51;100.00;94521.97;5096142;28;20202;-76
2021/09/28 08:51:10;;;;;;;3.17;1.10;;;;;;;12.71;100.00;94516.81;5096294;28;20198;-76
2021/09/28 08:53:37;;;;;;;6.35;1.35;;;;;;;12.76;100.00;94524.09;5096372;28;20206;-76
2021/09/28 08:56:05;;;;;;;9.48;1.20;;;;;;;12.67;100.00;94514.75;5096253;28;20198;-78
2021/09/28 08:58:31;;;;;;;3.55;0.85;;;;;;;12.50;100.00;94515.09;5095636;28;20661;-75
2021/09/28 09:01:07;;;;;;;4.90;1.20;;;;;;;12.29;100.00;94516.00;5110628;27;20528;-75
2021/09/28 09:03:36;;;;;;;5.38;1.20;;;;;;;11.83;100.00;94522.47;5137003;27;20200;-76
2021/09/28 09:06:07;;;;;;;3.40;1.08;;;;;;;11.77;100.00;94509.34;5136947;27;20197;-76
2021/09/28 09:08:39;;;;;;;9.60;1.30;;;;;;;11.93;100.00;94505.69;5137005;27;20197;-75
2021/09/28 09:11:13;;;;;;;5.10;1.17;;;;;;;12.09;100.00;94508.03;5136792;27;20269;-76
2021/09/28 09:13:44;;;;;;;3.95;1.17;;;;;;;12.43;100.00;94508.22;5136891;27;20271;-76
2021/09/28 09:16:13;;;;;;;4.32;1.23;;;;;;;12.72;100.00;94507.13;5136616;27;20729;-76
2021/09/28 09:18:41;;;;;;;2.42;1.20;;;;;;;13.06;100.00;94508.06;5136497;27;20561;-76
2021/09/28 09:21:14;;;;;;;6.07;1.08;;;;;;;12.94;100.00;94506.03;5136614;27;20197;-77
2021/09/28 09:23:45;;;;;;;6.90;1.20;;;;;;;13.24;100.00;94503.06;5136633;27;20283;-76
2021/09/28 09:26:15;;;;;;;5.00;1.10;;;;;;;13.11;100.00;94503.03;5136445;27;20228;-76
2021/09/28 09:28:48;;;;;;;6.68;1.20;;;;;;;12.82;100.00;94507.56;5136480;27;20658;-76
2021/09/28 09:31:24;;;;;;;2.35;1.08;;;;;;;12.74;100.00;94499.91;5136057;27;20651;-76
2021/09/28 09:33:54;;;;;;;7.35;1.00;;;;;;;12.57;100.00;94499.41;5136313;27;20200;-76
2021/09/28 09:36:23;;;;;;;3.05;0.80;;;;;;;12.45;100.00;94491.28;5136283;27;20208;-76
2021/09/28 09:38:53;;;;;;;2.67;0.85;;;;;;;12.63;100.00;94489.97;5134989;27;20204;-76
2021/09/28 09:41:26;;;;;;;4.75;1.45;;;;;;;12.79;100.00;94487.03;5136110;27;20192;-76
2021/09/28 09:44:01;;;;;;;5.07;1.15;;;;;;;12.84;100.00;94476.75;5136004;27;20228;-76
2021/09/28 09:46:39;;;;;;;5.30;1.20;;;;;;;13.07;100.00;94465.09;5135875;27;20655;-76
2021/09/28 09:49:06;;;;;;;7.65;1.05;;;;;;;13.15;100.00;94470.16;5136234;27;20204;-75
2021/09/28 09:51:40;;;;;;;6.13;1.33;;;;;;;13.05;100.00;94462.69;5136049;27;20232;-77
2021/09/28 09:54:07;;;;;;;1.52;0.80;;;;;;;13.08;100.00;94459.66;5136073;27;20291;-76
2021/09/28 09:56:48;;;;;;;8.30;1.00;;;;;;;13.25;100.00;94460.09;5135762;27;20197;-76
2021/09/28 09:59:16;;;;;;;1.85;0.65;;;;;;;13.50;100.00;94472.66;5135852;27;20206;-76
2021/09/28 10:01:43;;;;;;;7.68;1.20;;;;;;;13.51;100.00;94461.16;5135957;27;20196;-76
2021/09/28 10:04:10;;;;;;;2.70;0.70;;;;;;;13.73;100.00;94466.22;5135506;27;20205;-76
2021/09/28 10:06:39;;;;;;;3.42;0.90;;;;;;;13.83;100.00;94467.41;5135615;27;20197;-76
2021/09/28 10:09:11;;;;;;;4.05;0.75;;;;;;;14.05;100.00;94460.13;5135705;27;20192;-76
2021/09/28 10:11:40;;;;;;;3.92;0.85;;;;;;;13.93;100.00;94451.25;5135620;27;20197;-77
2021/09/28 10:14:28;;;;;;;1.90;0.68;;;;;;;14.09;100.00;94455.28;5135766;27;20250;-77
2021/09/28 10:16:56;;;;;;;6.05;0.80;;;;;;;14.20;100.00;94441.50;5135544;27;20225;-76
2021/09/28 10:19:48;;;;;;;4.63;0.80;;;;;;;14.41;100.00;94443.06;5135461;27;20287;-76
2021/09/28 10:22:48;;;;;;;2.70;0.88;;;;;;;14.07;100.00;94426.59;5115922;27;20197;-76
2021/09/28 10:25:37;;;;;;;2.15;0.70;;;;;;;14.27;100.00;94436.22;5135408;27;20242;-76
2021/09/28 10:28:39;;;;;;;3.45;0.50;;;;;;;14.41;100.00;94429.13;5135230;27;20745;-76
2021/09/28 10:31:11;;;;;;;2.80;0.80;;;;;;;14.49;100.00;94438.56;5135340;27;20200;-76
2021/09/28 10:33:42;;;;;;;4.95;0.70;;;;;;;14.58;100.00;94429.47;5135230;27;20196;-76
2021/09/28 10:36:13;;;;;;;3.08;1.15;;;;;;;14.46;100.00;94428.50;5133954;27;20448;-76
2021/09/28 10:38:48;;;;;;;4.50;1.08;;;;;;;14.40;100.00;94424.88;5134562;27;20277;-76
2021/09/28 10:41:46;;;;;;;7.50;1.38;;;;;;;14.17;100.00;94413.03;5135047;27;20192;-75
2021/09/28 10:45:03;;;;;;;2.40;0.75;;;;;;;14.71;100.00;94418.91;5135065;27;20193;-76
2021/09/28 10:47:52;;;;;;;2.72;0.73;;;;;;;14.98;100.00;94422.19;5129316;27;20764;-76
2021/09/28 10:50:22;;;;;;;7.03;0.82;;;;;;;15.21;100.00;94415.59;5134766;27;20332;-76
2021/09/28 10:52:49;;;;;;;4.30;0.80;;;;;;;15.38;100.00;94415.88;5135047;27;20205;-78
2021/09/28 10:55:26;;;;;;;2.65;0.80;;;;;;;15.34;100.00;94407.59;5134774;27;20204;-77
2021/09/28 10:58:03;;;;;;;6.35;0.90;;;;;;;15.44;100.00;94404.50;5134769;27;20228;-77
2021/09/28 11:00:53;;;;;;;5.57;1.05;;;;;;;15.30;100.00;94409.03;5134843;27;20711;-77
2021/09/28 11:03:57;;;;;;;2.85;0.73;;;;;;;15.58;100.00;94404.38;5134250;27;20659;-77
2021/09/28 11:07:00;;;;;;;0.98;0.63;;;;;;;15.15;100.00;94412.00;5132413;27;20193;-77
2021/09/28 11:09:45;;;;;;;3.38;1.02;;;;;;;14.89;100.00;94406.88;5134627;27;20212;-77
2021/09/28 11:12:13;;;;;;;3.80;0.88;;;;;;;14.74;100.00;94407.97;5134708;27;20197;-77
2021/09/28 11:14:40;;;;;;;5.20;0.77;;;;;;;15.29;100.00;94412.69;5134426;27;20196;-77
2021/09/28 11:17:13;;;;;;;2.63;0.77;;;;;;;15.89;99.10;94400.91;5134360;27;20220;-77
2021/09/28 11:19:41;;;;;;;5.57;0.82;;;;;;;15.99;98.78;94400.41;5134570;27;20209;-77
2021/09/28 11:22:11;;;;;;;2.95;0.70;;;;;;;16.03;100.00;94393.66;5134145;27;20670;-77
2021/09/28 11:24:40;;;;;;;4.30;0.77;;;;;;;15.98;99.83;94386.41;5134233;27;20719;-78
2021/09/28 11:27:10;;;;;;;2.15;0.60;;;;;;;16.22;96.64;94391.81;5134028;27;20232;-77
2021/09/28 11:29:40;;;;;;;2.60;0.70;;;;;;;16.16;94.06;94385.59;5134426;27;20192;-78
2021/09/28 11:32:08;;;;;;;2.88;0.70;;;;;;;15.87;96.49;94372.13;5134141;27;20670;-77
2021/09/28 11:34:36;;;;;;;7.13;0.95;;;;;;;16.05;100.00;94367.88;5134067;27;20246;-77
2021/09/28 11:37:06;;;;;;;4.70;0.90;;;;;;;16.22;97.49;94355.75;5134090;27;20291;-78
2021/09/28 11:39:38;;;;;;;7.47;0.77;;;;;;;16.62;91.36;94355.25;5134151;27;20231;-77
2021/09/28 11:42:06;;;;;;;3.13;0.90;;;;;;;16.74;90.97;94357.94;5134135;27;20205;-77
2021/09/28 11:44:34;;;;;;;3.08;0.70;;;;;;;16.43;93.07;94361.56;5134080;27;20199;-77